sensor_id;sensor_type;location;lat;lon;timestamp;temperature;humidity
51902;DHT22;37929;53.218;6.548;2023-02-04T00:01:55;7.10;99.90
51902;DHT22;37929;53.218;6.548;2023-02-04T00:04:20;7.10;99.90
51902;DHT22;37929;53.218;6.548;2023-02-04T00:06:46;7.10;99.90
51902;DHT22;37929;53.218;6.548;2023-02-04T00:09:12;7.10;99.90
51902;DHT22;37929;53.218;6.548;2023-02-04T00:11:38;7.10;99.90
51902;DHT22;37929;53.218;6.548;2023-02-04T00:14:03;7.10;99.90
51902;DHT22;37929;53.218;6.548;2023-02-04T00:16:29;7.70;99.90
51902;DHT22;37929;53.218;6.548;2023-02-04T00:18:55;7.10;99.90
51902;DHT22;37929;53.218;6.548;2023-02-04T00:21:20;7.90;99.90
51902;DHT22;37929;53.218;6.548;2023-02-04T00:23:46;7.30;99.90
51902;DHT22;37929;53.218;6.548;2023-02-04T00:26:16;7.60;99.90
51902;DHT22;37929;53.218;6.548;2023-02-04T00:28:42;7.20;99.90
51902;DHT22;37929;53.218;6.548;2023-02-04T00:31:07;7.40;99.90
51902;DHT22;37929;53.218;6.548;2023-02-04T00:33:33;7.00;99.90
51902;DHT22;37929;53.218;6.548;2023-02-04T00:35:59;7.00;99.90
51902;DHT22;37929;53.218;6.548;2023-02-04T00:38:25;7.10;99.90
51902;DHT22;37929;53.218;6.548;2023-02-04T00:40:50;7.10;99.90
51902;DHT22;37929;53.218;6.548;2023-02-04T00:43:16;7.10;99.90
51902;DHT22;37929;53.218;6.548;2023-02-04T00:45:42;7.00;99.90
51902;DHT22;37929;53.218;6.548;2023-02-04T00:48:07;7.10;99.90
51902;DHT22;37929;53.218;6.548;2023-02-04T00:50:33;7.00;99.90
51902;DHT22;37929;53.218;6.548;2023-02-04T00:53:06;7.10;99.90
51902;DHT22;37929;53.218;6.548;2023-02-04T00:55:32;7.10;99.90
51902;DHT22;37929;53.218;6.548;2023-02-04T00:57:58;7.10;99.90
51902;DHT22;37929;53.218;6.548;2023-02-04T01:00:24;7.00;99.90
51902;DHT22;37929;53.218;6.548;2023-02-04T01:02:50;7.00;99.90
51902;DHT22;37929;53.218;6.548;2023-02-04T01:05:15;7.10;99.90
51902;DHT22;37929;53.218;6.548;2023-02-04T01:07:41;7.10;99.90
51902;DHT22;37929;53.218;6.548;2023-02-04T01:10:07;7.10;99.90
51902;DHT22;37929;53.218;6.548;2023-02-04T01:12:33;7.10;99.90
51902;DHT22;37929;53.218;6.548;2023-02-04T01:14:59;7.10;99.90
51902;DHT22;37929;53.218;6.548;2023-02-04T01:17:25;7.10;99.90
51902;DHT22;37929;53.218;6.548;2023-02-04T01:19:51;7.10;99.90
51902;DHT22;37929;53.218;6.548;2023-02-04T01:22:16;7.10;99.90
51902;DHT22;37929;53.218;6.548;2023-02-04T01:24:42;7.10;99.90
51902;DHT22;37929;53.218;6.548;2023-02-04T01:27:08;7.10;99.90
51902;DHT22;37929;53.218;6.548;2023-02-04T01:29:33;7.10;99.90
51902;DHT22;37929;53.218;6.548;2023-02-04T01:31:59;7.10;99.90
51902;DHT22;37929;53.218;6.548;2023-02-04T01:34:25;7.20;99.90
51902;DHT22;37929;53.218;6.548;2023-02-04T01:36:51;7.30;99.90
51902;DHT22;37929;53.218;6.548;2023-02-04T01:39:17;7.20;99.90
51902;DHT22;37929;53.218;6.548;2023-02-04T01:41:46;7.20;99.90
51902;DHT22;37929;53.218;6.548;2023-02-04T01:44:12;7.10;99.90
51902;DHT22;37929;53.218;6.548;2023-02-04T01:46:37;7.10;99.90
51902;DHT22;37929;53.218;6.548;2023-02-04T01:49:05;7.10;99.90
51902;DHT22;37929;53.218;6.548;2023-02-04T01:51:31;7.10;99.90
51902;DHT22;37929;53.218;6.548;2023-02-04T01:53:58;7.30;99.90
51902;DHT22;37929;53.218;6.548;2023-02-04T01:56:26;7.10;99.90
51902;DHT22;37929;53.218;6.548;2023-02-04T01:58:54;7.00;99.90
51902;DHT22;37929;53.218;6.548;2023-02-04T02:01:55;7.10;99.90
51902;DHT22;37929;53.218;6.548;2023-02-04T02:04:29;7.40;99.90
51902;DHT22;37929;53.218;6.548;2023-02-04T02:06:57;7.10;99.90
51902;DHT22;37929;53.218;6.548;2023-02-04T02:09:28;7.00;99.90
51902;DHT22;37929;53.218;6.548;2023-02-04T02:11:56;7.10;99.90
51902;DHT22;37929;53.218;6.548;2023-02-04T02:14:22;7.20;99.90
51902;DHT22;37929;53.218;6.548;2023-02-04T02:16:48;7.30;99.90
51902;DHT22;37929;53.218;6.548;2023-02-04T02:19:25;7.10;99.90
51902;DHT22;37929;53.218;6.548;2023-02-04T02:22:02;7.10;99.90
51902;DHT22;37929;53.218;6.548;2023-02-04T02:24:34;7.00;99.90
51902;DHT22;37929;53.218;6.548;2023-02-04T02:27:08;7.10;99.90
51902;DHT22;37929;53.218;6.548;2023-02-04T02:29:36;7.00;99.90
51902;DHT22;37929;53.218;6.548;2023-02-04T02:32:03;7.00;99.90
51902;DHT22;37929;53.218;6.548;2023-02-04T02:34:30;7.00;99.90
51902;DHT22;37929;53.218;6.548;2023-02-04T02:36:57;7.10;99.90
51902;DHT22;37929;53.218;6.548;2023-02-04T02:39:23;7.10;99.90
51902;DHT22;37929;53.218;6.548;2023-02-04T02:41:49;7.00;99.90
51902;DHT22;37929;53.218;6.548;2023-02-04T02:44:16;7.20;99.90
51902;DHT22;37929;53.218;6.548;2023-02-04T02:46:42;7.20;99.90
51902;DHT22;37929;53.218;6.548;2023-02-04T02:49:17;7.30;99.90
51902;DHT22;37929;53.218;6.548;2023-02-04T02:51:44;7.40;99.90
51902;DHT22;37929;53.218;6.548;2023-02-04T02:54:28;7.10;99.90
51902;DHT22;37929;53.218;6.548;2023-02-04T02:56:55;7.10;99.90
51902;DHT22;37929;53.218;6.548;2023-02-04T02:59:22;7.30;99.90
51902;DHT22;37929;53.218;6.548;2023-02-04T03:01:57;7.10;99.90
51902;DHT22;37929;53.218;6.548;2023-02-04T03:04:26;7.10;99.90
51902;DHT22;37929;53.218;6.548;2023-02-04T03:06:54;7.10;99.90
51902;DHT22;37929;53.218;6.548;2023-02-04T03:09:21;7.10;99.90
51902;DHT22;37929;53.218;6.548;2023-02-04T03:11:47;7.20;99.90
51902;DHT22;37929;53.218;6.548;2023-02-04T03:14:14;7.10;99.90
51902;DHT22;37929;53.218;6.548;2023-02-04T03:16:42;7.20;99.90
51902;DHT22;37929;53.218;6.548;2023-02-04T03:19:09;7.70;99.90
51902;DHT22;37929;53.218;6.548;2023-02-04T03:21:35;7.20;99.90
51902;DHT22;37929;53.218;6.548;2023-02-04T03:24:03;7.10;99.90
51902;DHT22;37929;53.218;6.548;2023-02-04T03:26:29;7.10;99.90
51902;DHT22;37929;53.218;6.548;2023-02-04T03:28:54;7.10;99.90
51902;DHT22;37929;53.218;6.548;2023-02-04T03:31:23;7.10;99.90
51902;DHT22;37929;53.218;6.548;2023-02-04T03:33:49;7.10;99.90
51902;DHT22;37929;53.218;6.548;2023-02-04T03:36:15;7.60;99.90
51902;DHT22;37929;53.218;6.548;2023-02-04T03:38:40;7.00;99.90
51902;DHT22;37929;53.218;6.548;2023-02-04T03:41:06;7.00;99.90
51902;DHT22;37929;53.218;6.548;2023-02-04T03:43:32;7.10;99.90
51902;DHT22;37929;53.218;6.548;2023-02-04T03:45:58;7.10;99.90
51902;DHT22;37929;53.218;6.548;2023-02-04T03:48:24;7.20;99.90
51902;DHT22;37929;53.218;6.548;2023-02-04T03:50:49;7.10;99.90
51902;DHT22;37929;53.218;6.548;2023-02-04T03:53:15;7.10;99.90
51902;DHT22;37929;53.218;6.548;2023-02-04T03:55:41;7.00;99.90
51902;DHT22;37929;53.218;6.548;2023-02-04T03:58:07;7.30;99.90
51902;DHT22;37929;53.218;6.548;2023-02-04T04:00:32;7.00;99.90
51902;DHT22;37929;53.218;6.548;2023-02-04T04:02:58;7.00;99.90
51902;DHT22;37929;53.218;6.548;2023-02-04T04:05:24;7.00;99.90
51902;DHT22;37929;53.218;6.548;2023-02-04T04:07:50;7.00;99.90
51902;DHT22;37929;53.218;6.548;2023-02-04T04:10:16;7.00;99.90
51902;DHT22;37929;53.218;6.548;2023-02-04T04:12:42;7.00;99.90
51902;DHT22;37929;53.218;6.548;2023-02-04T04:15:08;7.00;99.90
51902;DHT22;37929;53.218;6.548;2023-02-04T04:17:34;6.90;99.90
51902;DHT22;37929;53.218;6.548;2023-02-04T04:20:00;7.00;99.90
51902;DHT22;37929;53.218;6.548;2023-02-04T04:22:25;6.90;99.90
51902;DHT22;37929;53.218;6.548;2023-02-04T04:24:51;7.00;99.90
51902;DHT22;37929;53.218;6.548;2023-02-04T04:27:17;7.00;99.90
51902;DHT22;37929;53.218;6.548;2023-02-04T04:29:43;6.90;99.90
51902;DHT22;37929;53.218;6.548;2023-02-04T04:32:09;6.90;99.90
51902;DHT22;37929;53.218;6.548;2023-02-04T04:34:35;6.90;99.90
51902;DHT22;37929;53.218;6.548;2023-02-04T04:37:01;6.90;99.90
51902;DHT22;37929;53.218;6.548;2023-02-04T04:39:26;6.90;99.90
51902;DHT22;37929;53.218;6.548;2023-02-04T04:41:58;7.50;99.90
51902;DHT22;37929;53.218;6.548;2023-02-04T04:44:24;6.90;99.90
51902;DHT22;37929;53.218;6.548;2023-02-04T04:46:49;7.30;99.90
51902;DHT22;37929;53.218;6.548;2023-02-04T04:49:15;6.90;99.90
51902;DHT22;37929;53.218;6.548;2023-02-04T04:51:41;7.80;99.90
51902;DHT22;37929;53.218;6.548;2023-02-04T04:54:07;6.90;99.90
51902;DHT22;37929;53.218;6.548;2023-02-04T04:56:33;6.90;99.90
51902;DHT22;37929;53.218;6.548;2023-02-04T04:58:58;7.30;99.90
51902;DHT22;37929;53.218;6.548;2023-02-04T05:01:24;6.90;99.90
51902;DHT22;37929;53.218;6.548;2023-02-04T05:03:52;6.90;99.90
51902;DHT22;37929;53.218;6.548;2023-02-04T05:06:18;6.90;99.90
51902;DHT22;37929;53.218;6.548;2023-02-04T05:08:53;6.90;99.90
51902;DHT22;37929;53.218;6.548;2023-02-04T05:11:19;6.90;99.90
51902;DHT22;37929;53.218;6.548;2023-02-04T05:13:48;6.90;99.90
51902;DHT22;37929;53.218;6.548;2023-02-04T05:16:14;6.90;99.90
51902;DHT22;37929;53.218;6.548;2023-02-04T05:18:40;6.90;99.90
51902;DHT22;37929;53.218;6.548;2023-02-04T05:21:06;6.90;99.90
51902;DHT22;37929;53.218;6.548;2023-02-04T05:23:32;6.90;99.90
51902;DHT22;37929;53.218;6.548;2023-02-04T05:25:59;6.90;99.90
51902;DHT22;37929;53.218;6.548;2023-02-04T05:28:25;6.90;99.90
51902;DHT22;37929;53.218;6.548;2023-02-04T05:30:50;6.90;99.90
51902;DHT22;37929;53.218;6.548;2023-02-04T05:33:16;6.80;99.90
51902;DHT22;37929;53.218;6.548;2023-02-04T05:35:42;6.80;99.90
51902;DHT22;37929;53.218;6.548;2023-02-04T05:38:08;6.80;99.90
51902;DHT22;37929;53.218;6.548;2023-02-04T05:40:35;7.30;99.90
51902;DHT22;37929;53.218;6.548;2023-02-04T05:43:01;6.80;99.90
51902;DHT22;37929;53.218;6.548;2023-02-04T05:45:27;6.80;99.90
51902;DHT22;37929;53.218;6.548;2023-02-04T05:47:53;6.80;99.90
51902;DHT22;37929;53.218;6.548;2023-02-04T05:50:18;6.80;99.90
51902;DHT22;37929;53.218;6.548;2023-02-04T05:52:44;6.80;99.90
51902;DHT22;37929;53.218;6.548;2023-02-04T05:55:11;6.80;99.90
51902;DHT22;37929;53.218;6.548;2023-02-04T05:57:37;6.90;99.90
51902;DHT22;37929;53.218;6.548;2023-02-04T06:00:04;6.80;99.90
51902;DHT22;37929;53.218;6.548;2023-02-04T06:02:30;6.80;99.90
51902;DHT22;37929;53.218;6.548;2023-02-04T06:04:56;6.80;99.90
51902;DHT22;37929;53.218;6.548;2023-02-04T06:07:21;6.80;99.90
51902;DHT22;37929;53.218;6.548;2023-02-04T06:09:47;6.90;99.90
51902;DHT22;37929;53.218;6.548;2023-02-04T06:12:13;6.80;99.90
51902;DHT22;37929;53.218;6.548;2023-02-04T06:14:39;6.70;99.90
51902;DHT22;37929;53.218;6.548;2023-02-04T06:17:04;6.70;99.90
51902;DHT22;37929;53.218;6.548;2023-02-04T06:19:30;7.30;99.90
51902;DHT22;37929;53.218;6.548;2023-02-04T06:21:56;6.70;99.90
51902;DHT22;37929;53.218;6.548;2023-02-04T06:24:21;7.30;99.90
51902;DHT22;37929;53.218;6.548;2023-02-04T06:26:50;6.70;99.90
51902;DHT22;37929;53.218;6.548;2023-02-04T06:29:15;6.70;99.90
51902;DHT22;37929;53.218;6.548;2023-02-04T06:31:41;6.70;99.90
51902;DHT22;37929;53.218;6.548;2023-02-04T06:34:09;6.70;99.90
51902;DHT22;37929;53.218;6.548;2023-02-04T06:36:34;6.70;99.90
51902;DHT22;37929;53.218;6.548;2023-02-04T06:39:03;6.70;99.90
51902;DHT22;37929;53.218;6.548;2023-02-04T06:41:28;6.60;99.90
51902;DHT22;37929;53.218;6.548;2023-02-04T06:43:54;6.70;99.90
51902;DHT22;37929;53.218;6.548;2023-02-04T06:46:20;6.60;99.90
51902;DHT22;37929;53.218;6.548;2023-02-04T06:48:45;6.60;99.90
51902;DHT22;37929;53.218;6.548;2023-02-04T06:51:11;6.70;99.90
51902;DHT22;37929;53.218;6.548;2023-02-04T06:53:37;6.60;99.90
51902;DHT22;37929;53.218;6.548;2023-02-04T06:56:05;7.10;99.90
51902;DHT22;37929;53.218;6.548;2023-02-04T06:58:31;6.50;99.90
51902;DHT22;37929;53.218;6.548;2023-02-04T07:00:57;6.50;99.90
51902;DHT22;37929;53.218;6.548;2023-02-04T07:03:22;6.40;99.90
51902;DHT22;37929;53.218;6.548;2023-02-04T07:05:51;6.50;99.90
51902;DHT22;37929;53.218;6.548;2023-02-04T07:08:18;6.40;99.90
51902;DHT22;37929;53.218;6.548;2023-02-04T07:10:46;7.30;99.90
51902;DHT22;37929;53.218;6.548;2023-02-04T07:13:12;6.30;99.90
51902;DHT22;37929;53.218;6.548;2023-02-04T07:15:38;6.80;99.90
51902;DHT22;37929;53.218;6.548;2023-02-04T07:18:03;6.60;99.90
51902;DHT22;37929;53.218;6.548;2023-02-04T07:20:29;6.20;99.90
51902;DHT22;37929;53.218;6.548;2023-02-04T07:22:55;6.50;99.90
51902;DHT22;37929;53.218;6.548;2023-02-04T07:25:21;6.10;99.90
51902;DHT22;37929;53.218;6.548;2023-02-04T07:27:47;6.70;99.90
51902;DHT22;37929;53.218;6.548;2023-02-04T07:30:13;6.10;99.90
51902;DHT22;37929;53.218;6.548;2023-02-04T07:32:39;6.80;99.90
51902;DHT22;37929;53.218;6.548;2023-02-04T07:35:05;6.10;99.90
51902;DHT22;37929;53.218;6.548;2023-02-04T07:37:31;6.10;99.90
51902;DHT22;37929;53.218;6.548;2023-02-04T07:39:57;6.10;99.90
51902;DHT22;37929;53.218;6.548;2023-02-04T07:42:23;6.90;99.90
51902;DHT22;37929;53.218;6.548;2023-02-04T07:44:48;6.00;99.90
51902;DHT22;37929;53.218;6.548;2023-02-04T07:47:14;6.00;99.90
51902;DHT22;37929;53.218;6.548;2023-02-04T07:49:42;5.90;99.90
51902;DHT22;37929;53.218;6.548;2023-02-04T07:52:11;5.90;99.90
51902;DHT22;37929;53.218;6.548;2023-02-04T07:54:37;5.90;99.90
51902;DHT22;37929;53.218;6.548;2023-02-04T07:57:02;5.90;99.90
51902;DHT22;37929;53.218;6.548;2023-02-04T07:59:28;5.90;99.90
51902;DHT22;37929;53.218;6.548;2023-02-04T08:01:54;6.00;99.90
51902;DHT22;37929;53.218;6.548;2023-02-04T08:04:19;5.90;99.90
51902;DHT22;37929;53.218;6.548;2023-02-04T08:06:45;5.90;99.90
51902;DHT22;37929;53.218;6.548;2023-02-04T08:09:11;5.80;99.90
51902;DHT22;37929;53.218;6.548;2023-02-04T08:11:37;5.90;99.90
51902;DHT22;37929;53.218;6.548;2023-02-04T08:14:02;5.90;99.90
51902;DHT22;37929;53.218;6.548;2023-02-04T08:16:28;5.90;99.90
51902;DHT22;37929;53.218;6.548;2023-02-04T08:18:54;5.90;99.90
51902;DHT22;37929;53.218;6.548;2023-02-04T08:21:20;5.90;99.90
51902;DHT22;37929;53.218;6.548;2023-02-04T08:23:46;5.90;99.90
51902;DHT22;37929;53.218;6.548;2023-02-04T08:26:11;5.90;99.90
51902;DHT22;37929;53.218;6.548;2023-02-04T08:28:37;5.90;99.90
51902;DHT22;37929;53.218;6.548;2023-02-04T08:31:06;5.90;99.90
51902;DHT22;37929;53.218;6.548;2023-02-04T08:33:37;5.90;99.90
51902;DHT22;37929;53.218;6.548;2023-02-04T08:36:04;6.00;99.90
51902;DHT22;37929;53.218;6.548;2023-02-04T08:38:30;5.80;99.90
51902;DHT22;37929;53.218;6.548;2023-02-04T08:40:56;6.60;99.90
51902;DHT22;37929;53.218;6.548;2023-02-04T08:43:22;5.90;99.90
51902;DHT22;37929;53.218;6.548;2023-02-04T08:45:48;5.90;99.90
51902;DHT22;37929;53.218;6.548;2023-02-04T08:48:13;5.80;99.90
51902;DHT22;37929;53.218;6.548;2023-02-04T08:50:39;6.60;99.90
51902;DHT22;37929;53.218;6.548;2023-02-04T08:53:05;5.80;99.90
51902;DHT22;37929;53.218;6.548;2023-02-04T08:55:31;6.70;99.90
51902;DHT22;37929;53.218;6.548;2023-02-04T08:57:56;6.40;99.90
51902;DHT22;37929;53.218;6.548;2023-02-04T09:00:27;5.90;99.90
51902;DHT22;37929;53.218;6.548;2023-02-04T09:02:54;5.90;99.90
51902;DHT22;37929;53.218;6.548;2023-02-04T09:05:20;6.40;99.90
51902;DHT22;37929;53.218;6.548;2023-02-04T09:07:46;6.00;99.90
51902;DHT22;37929;53.218;6.548;2023-02-04T09:10:11;6.00;99.90
51902;DHT22;37929;53.218;6.548;2023-02-04T09:12:37;6.00;99.90
51902;DHT22;37929;53.218;6.548;2023-02-04T09:15:03;6.00;99.90
51902;DHT22;37929;53.218;6.548;2023-02-04T09:17:29;6.00;99.90
51902;DHT22;37929;53.218;6.548;2023-02-04T09:19:55;6.00;99.90
51902;DHT22;37929;53.218;6.548;2023-02-04T09:22:21;6.00;99.90
51902;DHT22;37929;53.218;6.548;2023-02-04T09:24:47;6.10;99.90
51902;DHT22;37929;53.218;6.548;2023-02-04T09:27:12;6.10;99.90
51902;DHT22;37929;53.218;6.548;2023-02-04T09:29:38;6.30;99.90
51902;DHT22;37929;53.218;6.548;2023-02-04T09:32:04;6.60;99.90
51902;DHT22;37929;53.218;6.548;2023-02-04T09:34:30;6.70;99.90
51902;DHT22;37929;53.218;6.548;2023-02-04T09:36:55;6.80;99.90
51902;DHT22;37929;53.218;6.548;2023-02-04T09:39:21;7.30;99.90
51902;DHT22;37929;53.218;6.548;2023-02-04T09:41:47;6.80;99.90
51902;DHT22;37929;53.218;6.548;2023-02-04T09:44:18;6.90;99.90
51902;DHT22;37929;53.218;6.548;2023-02-04T09:46:48;7.10;99.90
51902;DHT22;37929;53.218;6.548;2023-02-04T09:49:14;7.10;99.90
51902;DHT22;37929;53.218;6.548;2023-02-04T09:51:43;7.00;99.90
51902;DHT22;37929;53.218;6.548;2023-02-04T09:54:15;7.00;99.90
51902;DHT22;37929;53.218;6.548;2023-02-04T09:56:42;6.90;99.90
51902;DHT22;37929;53.218;6.548;2023-02-04T09:59:19;7.00;99.90
51902;DHT22;37929;53.218;6.548;2023-02-04T10:01:54;7.00;99.90
51902;DHT22;37929;53.218;6.548;2023-02-04T10:04:21;7.10;99.90
51902;DHT22;37929;53.218;6.548;2023-02-04T10:06:47;7.00;99.90
51902;DHT22;37929;53.218;6.548;2023-02-04T10:09:14;7.10;99.90
51902;DHT22;37929;53.218;6.548;2023-02-04T10:11:45;7.20;99.90
51902;DHT22;37929;53.218;6.548;2023-02-04T10:14:20;6.90;99.90
51902;DHT22;37929;53.218;6.548;2023-02-04T10:16:54;6.90;99.90
51902;DHT22;37929;53.218;6.548;2023-02-04T10:19:20;6.90;99.90
51902;DHT22;37929;53.218;6.548;2023-02-04T10:21:46;6.80;99.90
51902;DHT22;37929;53.218;6.548;2023-02-04T10:24:20;6.80;99.90
51902;DHT22;37929;53.218;6.548;2023-02-04T10:26:47;6.80;99.90
51902;DHT22;37929;53.218;6.548;2023-02-04T10:29:24;7.00;99.90
51902;DHT22;37929;53.218;6.548;2023-02-04T10:31:51;6.90;99.90
51902;DHT22;37929;53.218;6.548;2023-02-04T10:36:50;6.90;99.90
51902;DHT22;37929;53.218;6.548;2023-02-04T10:39:21;6.90;99.90
51902;DHT22;37929;53.218;6.548;2023-02-04T10:41:52;6.90;99.90
51902;DHT22;37929;53.218;6.548;2023-02-04T10:44:44;6.90;99.90
51902;DHT22;37929;53.218;6.548;2023-02-04T10:47:20;7.20;99.90
51902;DHT22;37929;53.218;6.548;2023-02-04T10:52:21;7.70;99.90
51902;DHT22;37929;53.218;6.548;2023-02-04T10:54:48;7.40;99.90
51902;DHT22;37929;53.218;6.548;2023-02-04T10:57:22;7.40;99.90
51902;DHT22;37929;53.218;6.548;2023-02-04T10:59:51;7.50;99.90
51902;DHT22;37929;53.218;6.548;2023-02-04T11:02:43;7.40;99.90
51902;DHT22;37929;53.218;6.548;2023-02-04T11:05:16;7.40;99.90
51902;DHT22;37929;53.218;6.548;2023-02-04T11:07:44;7.40;99.90
51902;DHT22;37929;53.218;6.548;2023-02-04T11:10:16;7.50;99.90
51902;DHT22;37929;53.218;6.548;2023-02-04T11:15:49;7.50;99.90
51902;DHT22;37929;53.218;6.548;2023-02-04T11:20:47;7.40;99.90
51902;DHT22;37929;53.218;6.548;2023-02-04T11:23:30;7.40;99.90
51902;DHT22;37929;53.218;6.548;2023-02-04T11:26:18;7.40;99.90
51902;DHT22;37929;53.218;6.548;2023-02-04T11:28:48;7.70;99.90
51902;DHT22;37929;53.218;6.548;2023-02-04T11:33:47;8.10;99.90
51902;DHT22;37929;53.218;6.548;2023-02-04T11:36:15;7.60;99.90
51902;DHT22;37929;53.218;6.548;2023-02-04T11:38:46;7.80;99.90
51902;DHT22;37929;53.218;6.548;2023-02-04T11:41:29;7.90;99.90
51902;DHT22;37929;53.218;6.548;2023-02-04T11:43:56;8.60;99.90
51902;DHT22;37929;53.218;6.548;2023-02-04T11:46:22;8.30;99.90
51902;DHT22;37929;53.218;6.548;2023-02-04T11:48:55;8.30;99.90
51902;DHT22;37929;53.218;6.548;2023-02-04T11:51:31;8.30;99.90
51902;DHT22;37929;53.218;6.548;2023-02-04T11:53:58;8.30;99.90
51902;DHT22;37929;53.218;6.548;2023-02-04T11:56:27;8.40;99.90
51902;DHT22;37929;53.218;6.548;2023-02-04T11:58:56;8.40;99.90
51902;DHT22;37929;53.218;6.548;2023-02-04T12:01:32;8.40;99.90
51902;DHT22;37929;53.218;6.548;2023-02-04T12:04:04;8.40;99.90
51902;DHT22;37929;53.218;6.548;2023-02-04T12:06:35;8.70;99.90
51902;DHT22;37929;53.218;6.548;2023-02-04T12:12:21;8.40;99.90
51902;DHT22;37929;53.218;6.548;2023-02-04T12:14:56;8.50;99.90
51902;DHT22;37929;53.218;6.548;2023-02-04T12:17:22;8.30;99.90
51902;DHT22;37929;53.218;6.548;2023-02-04T12:19:47;8.30;99.90
51902;DHT22;37929;53.218;6.548;2023-02-04T12:22:16;8.50;99.90
51902;DHT22;37929;53.218;6.548;2023-02-04T12:24:42;8.50;99.90
51902;DHT22;37929;53.218;6.548;2023-02-04T12:27:08;8.20;99.90
51902;DHT22;37929;53.218;6.548;2023-02-04T12:29:34;8.30;99.90
51902;DHT22;37929;53.218;6.548;2023-02-04T12:32:00;8.90;99.90
51902;DHT22;37929;53.218;6.548;2023-02-04T12:34:26;8.30;99.90
51902;DHT22;37929;53.218;6.548;2023-02-04T12:36:51;8.30;99.90
51902;DHT22;37929;53.218;6.548;2023-02-04T12:39:17;8.40;99.90
51902;DHT22;37929;53.218;6.548;2023-02-04T12:41:43;8.40;99.90
51902;DHT22;37929;53.218;6.548;2023-02-04T12:44:09;8.40;99.90
51902;DHT22;37929;53.218;6.548;2023-02-04T12:46:35;8.50;99.90
51902;DHT22;37929;53.218;6.548;2023-02-04T12:49:01;8.50;99.90
51902;DHT22;37929;53.218;6.548;2023-02-04T12:51:30;8.50;99.90
51902;DHT22;37929;53.218;6.548;2023-02-04T12:54:00;8.60;99.90
51902;DHT22;37929;53.218;6.548;2023-02-04T12:56:26;8.70;99.90
51902;DHT22;37929;53.218;6.548;2023-02-04T12:58:51;8.70;99.90
51902;DHT22;37929;53.218;6.548;2023-02-04T13:01:20;8.70;99.90
51902;DHT22;37929;53.218;6.548;2023-02-04T13:03:46;8.70;99.90
51902;DHT22;37929;53.218;6.548;2023-02-04T13:06:12;8.70;99.90
51902;DHT22;37929;53.218;6.548;2023-02-04T13:08:37;8.80;99.90
51902;DHT22;37929;53.218;6.548;2023-02-04T13:11:06;9.00;99.90
51902;DHT22;37929;53.218;6.548;2023-02-04T13:13:32;9.00;99.90
51902;DHT22;37929;53.218;6.548;2023-02-04T13:15:57;9.20;99.90
51902;DHT22;37929;53.218;6.548;2023-02-04T13:18:23;9.30;99.90
51902;DHT22;37929;53.218;6.548;2023-02-04T13:20:49;9.40;99.90
51902;DHT22;37929;53.218;6.548;2023-02-04T13:23:15;9.50;99.90
51902;DHT22;37929;53.218;6.548;2023-02-04T13:25:40;9.60;99.90
51902;DHT22;37929;53.218;6.548;2023-02-04T13:28:08;9.70;99.90
51902;DHT22;37929;53.218;6.548;2023-02-04T13:30:36;9.80;99.90
51902;DHT22;37929;53.218;6.548;2023-02-04T13:33:01;9.80;99.90
51902;DHT22;37929;53.218;6.548;2023-02-04T13:35:27;9.70;99.90
51902;DHT22;37929;53.218;6.548;2023-02-04T13:37:53;9.50;99.90
51902;DHT22;37929;53.218;6.548;2023-02-04T13:40:19;9.30;99.90
51902;DHT22;37929;53.218;6.548;2023-02-04T13:42:46;9.30;99.90
51902;DHT22;37929;53.218;6.548;2023-02-04T13:45:12;9.20;99.90
51902;DHT22;37929;53.218;6.548;2023-02-04T13:47:37;9.10;99.90
51902;DHT22;37929;53.218;6.548;2023-02-04T13:50:04;9.10;99.90
51902;DHT22;37929;53.218;6.548;2023-02-04T13:52:33;9.10;99.90
51902;DHT22;37929;53.218;6.548;2023-02-04T13:54:59;9.60;99.90
51902;DHT22;37929;53.218;6.548;2023-02-04T13:57:28;9.10;99.90
51902;DHT22;37929;53.218;6.548;2023-02-04T13:59:55;9.10;99.90
51902;DHT22;37929;53.218;6.548;2023-02-04T14:02:21;9.00;99.90
51902;DHT22;37929;53.218;6.548;2023-02-04T14:04:48;8.90;99.90
51902;DHT22;37929;53.218;6.548;2023-02-04T14:07:14;9.00;99.90
51902;DHT22;37929;53.218;6.548;2023-02-04T14:09:39;9.00;99.90
51902;DHT22;37929;53.218;6.548;2023-02-04T14:12:05;9.00;99.90
51902;DHT22;37929;53.218;6.548;2023-02-04T14:14:31;8.90;99.90
51902;DHT22;37929;53.218;6.548;2023-02-04T14:16:57;8.80;99.90
51902;DHT22;37929;53.218;6.548;2023-02-04T14:19:28;8.90;99.90
51902;DHT22;37929;53.218;6.548;2023-02-04T14:21:54;9.10;99.90
51902;DHT22;37929;53.218;6.548;2023-02-04T14:24:20;9.30;99.90
51902;DHT22;37929;53.218;6.548;2023-02-04T14:26:46;9.50;99.90
51902;DHT22;37929;53.218;6.548;2023-02-04T14:29:12;9.50;99.90
51902;DHT22;37929;53.218;6.548;2023-02-04T14:31:38;9.50;99.90
51902;DHT22;37929;53.218;6.548;2023-02-04T14:34:06;9.50;99.90
51902;DHT22;37929;53.218;6.548;2023-02-04T14:36:32;9.30;99.90
51902;DHT22;37929;53.218;6.548;2023-02-04T14:38:58;9.10;99.90
51902;DHT22;37929;53.218;6.548;2023-02-04T14:41:23;9.10;99.90
51902;DHT22;37929;53.218;6.548;2023-02-04T14:43:51;8.90;99.90
51902;DHT22;37929;53.218;6.548;2023-02-04T14:46:18;8.80;99.90
51902;DHT22;37929;53.218;6.548;2023-02-04T14:48:44;8.80;99.90
51902;DHT22;37929;53.218;6.548;2023-02-04T14:51:10;8.70;99.90
51902;DHT22;37929;53.218;6.548;2023-02-04T14:53:36;8.60;99.90
51902;DHT22;37929;53.218;6.548;2023-02-04T14:56:02;8.60;99.90
51902;DHT22;37929;53.218;6.548;2023-02-04T14:58:27;8.60;99.90
51902;DHT22;37929;53.218;6.548;2023-02-04T15:00:53;8.60;99.90
51902;DHT22;37929;53.218;6.548;2023-02-04T15:03:19;8.50;99.90
51902;DHT22;37929;53.218;6.548;2023-02-04T15:05:45;8.40;99.90
51902;DHT22;37929;53.218;6.548;2023-02-04T15:08:11;8.30;99.90
51902;DHT22;37929;53.218;6.548;2023-02-04T15:10:39;8.20;99.90
51902;DHT22;37929;53.218;6.548;2023-02-04T15:13:06;8.10;99.90
51902;DHT22;37929;53.218;6.548;2023-02-04T15:15:32;8.10;99.90
51902;DHT22;37929;53.218;6.548;2023-02-04T15:17:58;8.10;99.90
51902;DHT22;37929;53.218;6.548;2023-02-04T15:20:24;8.10;99.90
51902;DHT22;37929;53.218;6.548;2023-02-04T15:22:49;8.00;99.90
51902;DHT22;37929;53.218;6.548;2023-02-04T15:25:17;8.20;99.90
51902;DHT22;37929;53.218;6.548;2023-02-04T15:27:43;7.90;99.90
51902;DHT22;37929;53.218;6.548;2023-02-04T15:37:55;7.60;99.90
51902;DHT22;37929;53.218;6.548;2023-02-04T15:40:41;7.60;99.90
51902;DHT22;37929;53.218;6.548;2023-02-04T15:44:01;7.60;99.90
51902;DHT22;37929;53.218;6.548;2023-02-04T15:46:42;7.60;99.90
51902;DHT22;37929;53.218;6.548;2023-02-04T15:49:14;7.20;99.90
51902;DHT22;37929;53.218;6.548;2023-02-04T15:52:08;7.40;99.90
51902;DHT22;37929;53.218;6.548;2023-02-04T15:54:56;7.30;99.90
51902;DHT22;37929;53.218;6.548;2023-02-04T15:57:22;7.40;99.90
51902;DHT22;37929;53.218;6.548;2023-02-04T15:59:48;7.30;99.90
51902;DHT22;37929;53.218;6.548;2023-02-04T16:02:13;7.30;99.90
51902;DHT22;37929;53.218;6.548;2023-02-04T16:04:39;7.30;99.90
51902;DHT22;37929;53.218;6.548;2023-02-04T16:07:09;7.30;99.90
51902;DHT22;37929;53.218;6.548;2023-02-04T16:09:35;7.30;99.90
51902;DHT22;37929;53.218;6.548;2023-02-04T16:12:02;7.20;99.90